Time;durP1;ratioP1;P1;durP2;ratioP2;P2;SDS_P1;SDS_P2;PMS_P1;PMS_P2;Temp;Humidity;BMP_temperature;BMP_pressure;BME280_temperature;BME280_humidity;BME280_pressure;Samples;Min_cycle;Max_cycle;Signal;HPM_P1;HPM_P2
2022/10/26 00:00:04;;;;;;;7.18;4.53;;;24.00;67.70;;;;;;5049189;28;20025;-69
2022/10/26 00:02:38;;;;;;;10.90;5.32;;;24.10;67.40;;;;;;5048027;28;20029;-68
2022/10/26 00:05:04;;;;;;;8.63;4.63;;;24.10;67.30;;;;;;5032124;28;20065;-68
2022/10/26 00:07:30;;;;;;;8.82;4.97;;;24.00;67.20;;;;;;5051601;28;20076;-69
2022/10/26 00:09:56;;;;;;;9.07;4.78;;;24.00;67.40;;;;;;5052090;28;20106;-68
2022/10/26 00:12:22;;;;;;;6.07;4.68;;;24.10;67.40;;;;;;5052033;28;20082;-68
2022/10/26 00:14:48;;;;;;;8.90;5.45;;;24.00;67.40;;;;;;5039994;28;20539;-68
2022/10/26 00:17:14;;;;;;;8.27;5.13;;;24.00;67.60;;;;;;5048585;28;20033;-68
2022/10/26 00:19:40;;;;;;;8.20;5.18;;;23.90;67.70;;;;;;5049385;28;20040;-69
2022/10/26 00:22:06;;;;;;;6.70;4.65;;;23.90;67.80;;;;;;5051396;28;20040;-68
2022/10/26 00:24:32;;;;;;;11.88;4.65;;;23.70;67.80;;;;;;5053745;28;20021;-68
2022/10/26 00:26:58;;;;;;;7.40;4.13;;;23.70;67.90;;;;;;5046639;28;20036;-68
2022/10/26 00:29:24;;;;;;;10.27;4.82;;;23.70;67.80;;;;;;5041004;28;20076;-68
2022/10/26 00:31:50;;;;;;;5.07;4.15;;;23.70;67.80;;;;;;5046649;28;20032;-68
2022/10/26 00:34:16;;;;;;;9.55;4.72;;;23.80;68.00;;;;;;5052409;28;20061;-68
2022/10/26 00:36:42;;;;;;;6.40;4.93;;;23.70;68.00;;;;;;5048520;28;20039;-68
2022/10/26 00:39:11;;;;;;;8.77;4.45;;;23.70;68.20;;;;;;5052276;28;20021;-68
2022/10/26 00:41:37;;;;;;;6.68;4.05;;;23.70;67.90;;;;;;5045018;28;20041;-69
2022/10/26 00:44:41;;;;;;;8.00;4.15;;;23.70;67.80;;;;;;5048911;28;20063;-69
2022/10/26 00:47:11;;;;;;;;;;;23.80;67.70;;;;;;5045027;28;20056;-68
2022/10/26 00:49:37;;;;;;;8.25;4.28;;;23.80;67.50;;;;;;5052465;28;20031;-67
2022/10/26 00:52:05;;;;;;;6.32;3.70;;;23.90;67.50;;;;;;5049986;28;20040;-68
2022/10/26 00:54:31;;;;;;;6.40;3.97;;;23.80;67.30;;;;;;5053128;28;20029;-68
2022/10/26 00:56:58;;;;;;;8.65;4.82;;;23.80;67.20;;;;;;5048505;28;20040;-68
2022/10/26 00:59:24;;;;;;;4.78;3.55;;;23.90;67.40;;;;;;5038633;28;20471;-68
2022/10/26 01:01:51;;;;;;;5.47;3.70;;;23.80;67.30;;;;;;5038660;28;20034;-68
2022/10/26 01:04:17;;;;;;;5.38;4.05;;;23.80;67.40;;;;;;5033428;28;20125;-68
2022/10/26 01:06:45;;;;;;;6.28;4.22;;;23.80;67.40;;;;;;5037968;28;20073;-68
2022/10/26 01:09:11;;;;;;;5.88;4.22;;;23.70;67.40;;;;;;5032867;28;20425;-68
2022/10/26 01:11:37;;;;;;;4.93;3.45;;;23.80;67.30;;;;;;5043642;28;20115;-68
2022/10/26 01:14:08;;;;;;;7.05;4.15;;;23.80;67.10;;;;;;5050421;28;20157;-69
2022/10/26 01:16:49;;;;;;;5.78;4.43;;;23.80;67.00;;;;;;5041397;28;20033;-68
2022/10/26 01:19:52;;;;;;;5.82;3.78;;;23.80;67.00;;;;;;5032305;28;20148;-68
2022/10/26 01:22:20;;;;;;;4.97;3.60;;;23.80;67.20;;;;;;5012116;28;20084;-68
2022/10/26 01:25:08;;;;;;;7.30;4.57;;;23.70;67.30;;;;;;5010619;28;20064;-67
2022/10/26 01:27:47;;;;;;;7.78;4.55;;;23.70;67.30;;;;;;5044781;28;20059;-68
2022/10/26 01:30:16;;;;;;;8.32;4.75;;;23.70;67.50;;;;;;5044061;28;20072;-68
2022/10/26 01:33:00;;;;;;;8.50;4.22;;;23.70;67.50;;;;;;5038742;28;20534;-68
2022/10/26 01:35:50;;;;;;;8.23;4.40;;;23.70;67.70;;;;;;5035260;28;20032;-68
2022/10/26 01:38:43;;;;;;;9.52;4.40;;;23.60;67.70;;;;;;5052488;28;20047;-68
2022/10/26 01:41:34;;;;;;;5.65;4.75;;;23.70;67.70;;;;;;4992916;28;20031;-68
2022/10/26 01:44:16;;;;;;;7.40;4.30;;;23.60;67.60;;;;;;4993976;28;20104;-68
2022/10/26 01:46:46;;;;;;;5.35;4.25;;;23.60;67.50;;;;;;4994952;28;20121;-68
2022/10/26 01:49:15;;;;;;;7.85;4.45;;;23.60;67.40;;;;;;5000139;28;20038;-69
2022/10/26 01:51:44;;;;;;;6.68;4.75;;;23.60;67.40;;;;;;5007082;28;20050;-68
2022/10/26 01:54:10;;;;;;;6.40;5.07;;;23.60;67.30;;;;;;4976600;28;20038;-68
2022/10/26 01:56:40;;;;;;;6.47;4.55;;;23.50;67.50;;;;;;4984608;28;20541;-68
2022/10/26 01:59:06;;;;;;;7.20;4.15;;;23.50;67.80;;;;;;5007283;28;20184;-68
2022/10/26 02:01:46;;;;;;;5.40;3.92;;;23.50;67.70;;;;;;5000055;28;20095;-68
2022/10/26 02:04:34;;;;;;;7.50;4.45;;;23.50;67.80;;;;;;4988942;28;20052;-69
2022/10/26 02:07:04;;;;;;;8.88;4.68;;;23.50;67.90;;;;;;5004442;28;20534;-68
2022/10/26 02:09:30;;;;;;;7.43;3.67;;;23.50;67.90;;;;;;5005245;28;20033;-68
2022/10/26 02:11:57;;;;;;;6.05;4.03;;;23.50;67.90;;;;;;5003170;28;20050;-68
2022/10/26 02:14:45;;;;;;;5.50;3.35;;;23.50;68.00;;;;;;5001466;28;20041;-68
2022/10/26 02:17:20;;;;;;;6.75;3.72;;;23.50;67.90;;;;;;5010199;28;20052;-68
2022/10/26 02:19:53;;;;;;;4.80;3.05;;;23.50;67.70;;;;;;5044695;28;20029;-69
2022/10/26 02:22:25;;;;;;;4.45;3.17;;;23.50;67.60;;;;;;5047477;28;20072;-68
2022/10/26 02:24:52;;;;;;;7.30;3.55;;;23.60;67.40;;;;;;5035552;28;20085;-68
2022/10/26 02:27:25;;;;;;;4.55;3.60;;;23.50;67.30;;;;;;5037507;28;20559;-68
2022/10/26 02:29:55;;;;;;;7.63;3.67;;;23.60;67.20;;;;;;5023815;28;20075;-68
2022/10/26 02:32:28;;;;;;;4.72;3.85;;;23.70;67.30;;;;;;5046391;28;20052;-68
2022/10/26 02:34:56;;;;;;;7.53;4.03;;;23.50;67.20;;;;;;5046671;28;20363;-69
2022/10/26 02:37:25;;;;;;;5.88;4.20;;;23.50;67.60;;;;;;5050677;28;20021;-67
2022/10/26 02:39:54;;;;;;;6.03;3.80;;;23.50;67.40;;;;;;5029555;28;20056;-68
2022/10/26 02:42:21;;;;;;;4.93;4.03;;;23.50;67.20;;;;;;5029127;28;20490;-68
2022/10/26 02:44:56;;;;;;;6.57;3.90;;;23.50;67.00;;;;;;5042459;28;20044;-68
2022/10/26 02:47:25;;;;;;;7.18;4.22;;;23.60;66.90;;;;;;5049326;28;20025;-68
2022/10/26 02:49:52;;;;;;;5.97;4.07;;;23.40;67.10;;;;;;5049563;28;20162;-69
2022/10/26 02:52:33;;;;;;;8.45;4.18;;;23.40;67.50;;;;;;5037554;28;20510;-68
2022/10/26 02:55:11;;;;;;;5.15;3.67;;;23.40;67.80;;;;;;5029738;28;20029;-68
2022/10/26 02:57:39;;;;;;;8.23;4.00;;;23.30;68.10;;;;;;5029615;28;20029;-68
2022/10/26 03:00:08;;;;;;;5.93;4.00;;;23.30;68.00;;;;;;5047137;28;20025;-68
2022/10/26 03:02:34;;;;;;;6.25;4.05;;;23.30;67.90;;;;;;5050255;28;20573;-68
2022/10/26 03:05:19;;;;;;;6.03;4.03;;;23.30;67.70;;;;;;5040807;28;20134;-68
2022/10/26 03:07:45;;;;;;;7.22;4.13;;;23.40;67.70;;;;;;5050981;28;20045;-68
2022/10/26 03:10:11;;;;;;;5.85;3.95;;;23.30;67.70;;;;;;5051223;28;20039;-68
2022/10/26 03:12:37;;;;;;;7.50;3.63;;;23.20;67.80;;;;;;5039653;28;20029;-68
2022/10/26 03:15:04;;;;;;;8.55;3.85;;;23.20;67.90;;;;;;5047162;28;20075;-68
2022/10/26 03:17:30;;;;;;;6.03;4.00;;;23.20;67.90;;;;;;5050251;28;20562;-68
2022/10/26 03:19:56;;;;;;;5.28;3.78;;;23.20;67.70;;;;;;5043762;28;20100;-68
2022/10/26 03:22:22;;;;;;;5.47;4.07;;;23.40;67.70;;;;;;5050134;28;20029;-68
2022/10/26 03:24:48;;;;;;;7.10;3.30;;;23.20;67.70;;;;;;5031324;28;20049;-68
2022/10/26 03:27:14;;;;;;;3.88;3.20;;;23.40;67.70;;;;;;5040291;28;20044;-68
2022/10/26 03:29:40;;;;;;;6.00;3.10;;;23.40;67.80;;;;;;5043643;28;20043;-68
2022/10/26 03:32:07;;;;;;;3.30;3.00;;;23.40;67.60;;;;;;5047250;28;20112;-68
2022/10/26 03:34:33;;;;;;;4.57;2.92;;;23.40;67.60;;;;;;5031375;28;20415;-68
2022/10/26 03:36:59;;;;;;;3.65;2.63;;;23.40;67.50;;;;;;5046869;28;20143;-68
2022/10/26 03:39:25;;;;;;;3.47;2.85;;;23.50;67.50;;;;;;5032895;28;20036;-69
2022/10/26 03:41:51;;;;;;;6.47;3.15;;;23.50;67.10;;;;;;5044886;28;20034;-68
2022/10/26 03:44:17;;;;;;;5.30;3.65;;;23.30;67.00;;;;;;5047468;28;20061;-68
2022/10/26 03:46:43;;;;;;;6.38;3.50;;;23.50;67.10;;;;;;5049691;28;20454;-68
2022/10/26 03:49:09;;;;;;;5.47;4.13;;;23.40;66.90;;;;;;5032429;28;20030;-68
2022/10/26 03:51:34;;;;;;;8.93;3.33;;;23.50;67.10;;;;;;5046986;28;20470;-68
2022/10/26 03:54:00;;;;;;;6.28;3.53;;;23.50;67.20;;;;;;5047970;28;20033;-68
2022/10/26 03:56:26;;;;;;;5.93;4.15;;;23.30;67.20;;;;;;5047078;28;20052;-68
2022/10/26 03:58:52;;;;;;;5.63;3.67;;;23.20;67.10;;;;;;5046276;28;20028;-68
2022/10/26 04:01:18;;;;;;;5.53;4.05;;;23.30;67.20;;;;;;5045851;28;20025;-68
2022/10/26 04:03:44;;;;;;;5.43;4.40;;;23.30;67.20;;;;;;5048736;28;20136;-68
2022/10/26 04:06:10;;;;;;;4.70;3.65;;;23.30;67.30;;;;;;5043089;28;20045;-69
2022/10/26 04:08:36;;;;;;;4.38;3.63;;;23.30;67.40;;;;;;5044888;28;20029;-68
2022/10/26 04:11:02;;;;;;;5.03;3.25;;;23.30;67.50;;;;;;5049970;28;20040;-68
2022/10/26 04:13:28;;;;;;;7.18;3.20;;;23.30;67.30;;;;;;5041413;28;20077;-68
2022/10/26 04:15:54;;;;;;;5.95;3.53;;;23.30;67.20;;;;;;5046612;28;20056;-68
2022/10/26 04:18:20;;;;;;;5.35;3.30;;;23.20;67.10;;;;;;5045476;28;20048;-68
2022/10/26 04:20:46;;;;;;;3.55;3.03;;;23.40;67.20;;;;;;5037364;28;20033;-68
2022/10/26 04:23:14;;;;;;;5.30;3.40;;;23.20;67.00;;;;;;5050085;28;20438;-69
2022/10/26 04:25:41;;;;;;;3.22;2.92;;;23.40;67.10;;;;;;5052038;28;20045;-68
2022/10/26 04:28:08;;;;;;;3.15;2.75;;;23.40;67.00;;;;;;5047032;28;20492;-68
2022/10/26 04:30:35;;;;;;;7.18;3.20;;;23.30;66.90;;;;;;5019334;28;20037;-68
2022/10/26 04:33:02;;;;;;;3.08;2.80;;;23.30;66.90;;;;;;5045109;28;20041;-68
2022/10/26 04:35:28;;;;;;;5.93;3.65;;;23.40;66.90;;;;;;5029244;28;20044;-68
2022/10/26 04:37:59;;;;;;;5.80;3.85;;;23.40;66.90;;;;;;5032578;28;20033;-68
2022/10/26 04:40:26;;;;;;;3.67;3.25;;;23.40;66.80;;;;;;5031479;28;20036;-68
2022/10/26 04:42:52;;;;;;;5.63;3.33;;;23.50;67.00;;;;;;5040706;28;20542;-69
2022/10/26 04:45:18;;;;;;;4.68;3.00;;;23.50;66.80;;;;;;5036132;28;20470;-68
2022/10/26 04:47:44;;;;;;;7.30;3.75;;;23.40;66.50;;;;;;5037169;28;20047;-68
2022/10/26 04:50:12;;;;;;;5.30;3.45;;;23.40;66.50;;;;;;5041683;28;20046;-68
2022/10/26 04:52:38;;;;;;;5.00;3.05;;;23.30;66.60;;;;;;5033421;28;20143;-69
2022/10/26 04:55:05;;;;;;;5.05;3.40;;;23.30;66.70;;;;;;5033747;28;20064;-68
2022/10/26 04:57:35;;;;;;;3.70;3.30;;;23.40;66.70;;;;;;5035571;28;20370;-68
2022/10/26 05:00:03;;;;;;;3.42;3.05;;;23.30;66.80;;;;;;5050519;28;20065;-68
2022/10/26 05:02:29;;;;;;;5.32;3.50;;;23.40;66.80;;;;;;5038230;28;20025;-68
2022/10/26 05:04:55;;;;;;;6.53;3.60;;;23.30;66.80;;;;;;5033201;28;20046;-68
2022/10/26 05:07:21;;;;;;;5.63;3.70;;;23.20;66.70;;;;;;5032628;28;20463;-68
2022/10/26 05:09:47;;;;;;;7.65;3.33;;;23.30;66.80;;;;;;5033181;28;20045;-68
2022/10/26 05:12:13;;;;;;;4.75;3.38;;;23.10;66.80;;;;;;5031068;28;20030;-68
2022/10/26 05:14:39;;;;;;;3.95;3.45;;;23.30;66.90;;;;;;5046344;28;20055;-68
2022/10/26 05:17:05;;;;;;;9.35;3.90;;;23.20;66.80;;;;;;5046603;28;20037;-72
2022/10/26 05:19:31;;;;;;;4.65;3.20;;;23.30;66.80;;;;;;5042810;28;20163;-69
2022/10/26 05:21:57;;;;;;;6.10;3.53;;;23.30;66.30;;;;;;5034969;28;20747;-68
2022/10/26 05:24:23;;;;;;;3.85;2.70;;;23.10;66.30;;;;;;5033056;28;20026;-66
2022/10/26 05:26:49;;;;;;;2.83;2.05;;;23.30;61.00;;;;;;5030783;28;20470;-67
2022/10/26 05:29:15;;;;;;;2.30;1.58;;;23.30;59.00;;;;;;5030330;28;20137;-67
2022/10/26 05:31:41;;;;;;;4.82;2.10;;;23.40;57.50;;;;;;5027152;28;20022;-67
2022/10/26 05:34:07;;;;;;;2.35;1.85;;;23.40;57.90;;;;;;5032226;28;20041;-68
2022/10/26 05:36:33;;;;;;;3.50;2.72;;;23.50;58.90;;;;;;5030242;28;20036;-67
2022/10/26 05:38:59;;;;;;;2.53;2.33;;;23.50;62.60;;;;;;5033004;28;20025;-67
2022/10/26 05:41:25;;;;;;;11.38;7.70;;;23.80;63.40;;;;;;5031348;28;20036;-68
2022/10/26 05:43:51;;;;;;;15.07;8.75;;;23.80;59.10;;;;;;5030604;28;20044;-68
2022/10/26 05:46:17;;;;;;;19.02;12.70;;;23.90;58.50;;;;;;5028620;28;20034;-68
2022/10/26 05:48:43;;;;;;;14.85;10.98;;;23.90;58.70;;;;;;5031075;28;20498;-68
2022/10/26 05:51:11;;;;;;;8.73;6.15;;;23.90;58.50;;;;;;5030589;28;20490;-68
2022/10/26 05:53:37;;;;;;;5.82;4.13;;;24.00;56.40;;;;;;5031020;28;20029;-67
2022/10/26 05:56:20;;;;;;;7.00;3.45;;;24.00;59.00;;;;;;5031635;28;20079;-66
2022/10/26 05:58:47;;;;;;;7.13;3.10;;;24.00;63.20;;;;;;5030178;28;20040;-68
2022/10/26 06:01:30;;;;;;;6.88;2.95;;;24.00;63.60;;;;;;5030359;28;20044;-67
2022/10/26 06:04:01;;;;;;;3.92;3.22;;;23.90;64.10;;;;;;5030920;28;20188;-67
2022/10/26 06:06:37;;;;;;;6.90;3.03;;;24.00;64.20;;;;;;5036504;28;20448;-67
2022/10/26 06:09:03;;;;;;;4.65;3.30;;;23.90;64.50;;;;;;5052160;28;20090;-68
2022/10/26 06:11:29;;;;;;;5.00;3.30;;;23.90;64.10;;;;;;5039780;28;20037;-67
2022/10/26 06:13:59;;;;;;;5.30;3.15;;;24.10;64.70;;;;;;5050252;28;20048;-67
2022/10/26 06:16:34;;;;;;;7.30;3.22;;;24.00;64.90;;;;;;5011603;28;20139;-68
2022/10/26 06:19:34;;;;;;;5.40;3.97;;;24.00;64.90;;;;;;5047736;28;20033;-67
2022/10/26 06:22:20;;;;;;;12.40;6.75;;;24.00;65.60;;;;;;5004524;28;20604;-67
2022/10/26 06:25:00;;;;;;;11.75;8.07;;;23.90;65.90;;;;;;5009519;28;20042;-69
2022/10/26 06:27:44;;;;;;;13.85;7.85;;;23.90;64.00;;;;;;5009692;28;20061;-71
2022/10/26 06:30:11;;;;;;;8.95;8.02;;;23.90;63.70;;;;;;4987214;28;20084;-70
2022/10/26 06:32:44;;;;;;;19.38;10.68;;;23.90;64.10;;;;;;4993516;28;20055;-70
2022/10/26 06:35:44;;;;;;;17.67;9.68;;;23.90;66.50;;;;;;4990889;28;20488;-69
2022/10/26 06:38:16;;;;;;;32.30;14.82;;;23.90;65.40;;;;;;4969314;28;20042;-70
2022/10/26 06:40:44;;;;;;;27.30;12.80;;;24.00;68.00;;;;;;4968938;28;20461;-70
2022/10/26 06:43:40;;;;;;;12.80;7.57;;;23.90;67.80;;;;;;4968657;28;20039;-69
2022/10/26 06:46:26;;;;;;;9.32;7.25;;;24.00;64.80;;;;;;4928910;29;20067;-71
2022/10/26 06:49:17;;;;;;;13.15;8.18;;;24.00;62.50;;;;;;4915149;29;20035;-70
2022/10/26 06:52:18;;;;;;;8.35;7.13;;;24.10;60.30;;;;;;4927433;29;20032;-70
2022/10/26 06:54:53;;;;;;;24.23;13.40;;;24.20;64.50;;;;;;4887736;29;20044;-71
2022/10/26 06:57:23;;;;;;;10.00;8.75;;;24.20;65.20;;;;;;4893294;29;20048;-69
2022/10/26 06:59:50;;;;;;;38.05;17.00;;;24.20;64.80;;;;;;4890501;29;20032;-68
2022/10/26 07:02:17;;;;;;;16.95;10.95;;;24.30;65.00;;;;;;4893133;29;20043;-68
2022/10/26 07:04:44;;;;;;;8.20;6.13;;;24.30;64.20;;;;;;4891995;29;20056;-71
2022/10/26 07:07:19;;;;;;;9.77;6.88;;;24.30;60.30;;;;;;4889342;29;20105;-68
2022/10/26 07:09:45;;;;;;;11.13;8.32;;;24.20;61.00;;;;;;4891560;29;20048;-68
2022/10/26 07:12:11;;;;;;;8.93;6.25;;;24.20;63.20;;;;;;4888898;29;20100;-69
2022/10/26 07:14:37;;;;;;;9.30;6.35;;;24.30;62.30;;;;;;4926275;29;20047;-70
2022/10/26 07:17:04;;;;;;;13.93;8.38;;;24.30;60.00;;;;;;4919842;29;20043;-69
2022/10/26 07:19:30;;;;;;;11.00;8.93;;;24.40;63.20;;;;;;4889230;29;20044;-69
2022/10/26 07:22:00;;;;;;;15.90;9.63;;;24.30;62.60;;;;;;4933674;28;20395;-71
2022/10/26 07:24:29;;;;;;;10.13;6.63;;;24.40;63.40;;;;;;4962964;28;20035;-67
2022/10/26 07:26:56;;;;;;;7.57;6.45;;;24.40;60.70;;;;;;4960369;28;20066;-69
2022/10/26 07:29:24;;;;;;;8.13;5.90;;;24.40;61.00;;;;;;4952989;28;20036;-68
2022/10/26 07:31:51;;;;;;;9.98;5.63;;;24.50;58.20;;;;;;5004257;28;20067;-69
2022/10/26 07:34:17;;;;;;;31.90;11.52;;;24.40;58.70;;;;;;5050726;28;20063;-69
2022/10/26 07:36:43;;;;;;;10.30;6.75;;;24.40;63.10;;;;;;5044864;28;20052;-70
2022/10/26 07:39:09;;;;;;;8.50;5.97;;;24.40;61.20;;;;;;5029021;28;20037;-69
2022/10/26 07:41:35;;;;;;;8.02;5.00;;;24.50;59.40;;;;;;5034258;28;20071;-70
2022/10/26 07:44:01;;;;;;;9.10;5.07;;;24.40;56.00;;;;;;5038025;28;20029;-69
2022/10/26 07:46:27;;;;;;;6.20;5.40;;;24.30;58.90;;;;;;5050758;28;20732;-69
2022/10/26 07:48:53;;;;;;;12.93;7.82;;;24.40;59.00;;;;;;5043326;28;20032;-69
2022/10/26 07:51:20;;;;;;;9.90;6.03;;;24.30;61.10;;;;;;5035499;28;20037;-69
2022/10/26 07:53:46;;;;;;;15.30;7.47;;;24.50;59.30;;;;;;5041178;28;20025;-70
2022/10/26 07:56:12;;;;;;;11.82;6.18;;;24.50;60.10;;;;;;5047312;28;20033;-68
2022/10/26 07:58:38;;;;;;;9.57;5.05;;;24.40;61.00;;;;;;5043331;28;20112;-70
2022/10/26 08:01:06;;;;;;;16.55;8.00;;;24.30;58.80;;;;;;5039881;28;20474;-68
2022/10/26 08:03:32;;;;;;;8.43;5.28;;;24.50;59.80;;;;;;5032921;28;20091;-68
2022/10/26 08:05:58;;;;;;;10.02;4.78;;;24.40;58.50;;;;;;5033760;28;20108;-69
2022/10/26 08:08:24;;;;;;;5.13;4.28;;;24.40;54.50;;;;;;5037771;28;20036;-69
2022/10/26 08:10:51;;;;;;;9.57;5.22;;;24.20;57.50;;;;;;5045778;28;20404;-69
2022/10/26 08:13:17;;;;;;;9.68;4.93;;;24.30;58.80;;;;;;5035376;28;20056;-70
2022/10/26 08:15:44;;;;;;;5.38;4.60;;;24.30;59.00;;;;;;5038797;28;20033;-70
2022/10/26 08:18:10;;;;;;;9.65;5.45;;;24.30;58.90;;;;;;5045908;28;20037;-71
2022/10/26 08:20:36;;;;;;;9.45;6.00;;;24.20;60.00;;;;;;5036145;28;20031;-70
2022/10/26 08:23:05;;;;;;;13.40;7.10;;;24.30;60.00;;;;;;5046401;28;20051;-68
2022/10/26 08:25:32;;;;;;;9.27;5.30;;;24.30;60.90;;;;;;5044630;28;20408;-67
2022/10/26 08:28:02;;;;;;;9.38;5.03;;;24.30;61.20;;;;;;5031958;28;20155;-69
2022/10/26 08:30:30;;;;;;;15.45;7.97;;;24.20;60.40;;;;;;5039005;28;20112;-71
2022/10/26 08:33:05;;;;;;;18.10;7.40;;;24.30;58.60;;;;;;5041794;28;20037;-71
2022/10/26 08:35:31;;;;;;;11.75;6.45;;;24.50;59.90;;;;;;5048924;28;20036;-71
2022/10/26 08:37:58;;;;;;;12.45;5.70;;;24.50;54.40;;;;;;5043385;28;20025;-74
2022/10/26 08:40:30;;;;;;;11.02;6.18;;;24.50;53.80;;;;;;5039070;28;20216;-71
2022/10/26 08:43:25;;;;;;;10.48;5.45;;;24.50;52.60;;;;;;5030050;28;20065;-71
2022/10/26 08:45:59;;;;;;;7.15;4.35;;;24.50;54.40;;;;;;5030405;28;20071;-68
2022/10/26 08:48:32;;;;;;;8.57;4.05;;;24.50;57.80;;;;;;5025349;28;20216;-69
2022/10/26 08:51:18;;;;;;;;;;;24.60;59.30;;;;;;5030021;28;20033;-70
2022/10/26 08:54:00;;;;;;;9.02;4.70;;;24.60;60.20;;;;;;5046014;28;19909;-71
2022/10/26 08:56:34;;;;;;;6.40;3.72;;;24.60;58.90;;;;;;5030955;28;20052;-71
2022/10/26 08:59:33;;;;;;;8.35;3.78;;;24.60;60.10;;;;;;5035258;28;20052;-71
2022/10/26 09:02:01;;;;;;;4.30;3.15;;;24.60;60.60;;;;;;5027690;28;20029;-69
2022/10/26 09:04:30;;;;;;;6.18;3.80;;;24.50;59.30;;;;;;5031812;28;20048;-71
2022/10/26 09:07:05;;;;;;;6.38;3.25;;;24.60;61.00;;;;;;5032240;28;20041;-71
2022/10/26 09:09:37;;;;;;;4.00;3.15;;;24.60;60.80;;;;;;5044932;28;20036;-67
2022/10/26 09:12:22;;;;;;;4.30;3.17;;;24.60;60.70;;;;;;5042872;28;20036;-68
2022/10/26 09:15:08;;;;;;;7.43;3.60;;;24.70;60.20;;;;;;5049123;28;20033;-69
2022/10/26 09:17:56;;;;;;;5.68;3.05;;;24.60;60.20;;;;;;5027966;28;20474;-68
2022/10/26 09:20:25;;;;;;;4.45;3.20;;;24.50;61.10;;;;;;5025535;28;20045;-69
2022/10/26 09:23:06;;;;;;;7.25;3.92;;;24.60;61.50;;;;;;5037063;28;20053;-68
2022/10/26 09:25:38;;;;;;;4.70;3.67;;;24.50;62.10;;;;;;5036955;28;20035;-69
2022/10/26 09:28:11;;;;;;;9.45;3.72;;;24.60;60.90;;;;;;5050951;28;20029;-69
2022/10/26 09:30:37;;;;;;;5.22;3.80;;;24.60;60.30;;;;;;5045043;28;20029;-69
2022/10/26 09:33:17;;;;;;;7.82;3.30;;;24.60;62.00;;;;;;5049645;28;20047;-69
2022/10/26 09:35:51;;;;;;;7.65;3.13;;;24.60;62.20;;;;;;5051482;28;20032;-71
2022/10/26 09:38:38;;;;;;;5.15;3.33;;;24.70;62.20;;;;;;5043270;28;20029;-71
2022/10/26 09:41:10;;;;;;;6.07;3.80;;;24.50;61.20;;;;;;5047302;28;20043;-70
2022/10/26 09:43:49;;;;;;;5.43;3.80;;;24.50;61.10;;;;;;5049814;28;20120;-69
2022/10/26 09:46:20;;;;;;;6.82;3.78;;;24.50;62.20;;;;;;5042789;28;20485;-70
2022/10/26 09:49:00;;;;;;;5.88;3.35;;;24.60;61.90;;;;;;5049207;28;20398;-70
2022/10/26 09:51:26;;;;;;;5.80;3.42;;;24.50;62.70;;;;;;5034182;28;20029;-70
2022/10/26 09:53:55;;;;;;;5.63;3.08;;;24.50;62.70;;;;;;5042905;28;20033;-69
2022/10/26 09:56:22;;;;;;;7.40;3.53;;;24.30;60.60;;;;;;5044314;28;20021;-70
2022/10/26 09:58:58;;;;;;;6.35;3.65;;;24.50;61.50;;;;;;5033826;28;20455;-71
2022/10/26 10:01:34;;;;;;;5.38;3.03;;;24.40;62.20;;;;;;5027767;28;20037;-72
2022/10/26 10:04:12;;;;;;;4.07;3.15;;;24.40;62.30;;;;;;5061712;28;20045;-71
2022/10/26 10:06:42;;;;;;;3.88;2.88;;;24.40;61.60;;;;;;5031896;28;20041;-69
2022/10/26 10:09:19;;;;;;;4.28;2.67;;;24.40;62.50;;;;;;5040146;28;20084;-70
2022/10/26 10:12:04;;;;;;;10.07;3.75;;;24.30;63.00;;;;;;5049691;28;20518;-71
2022/10/26 10:14:37;;;;;;;3.85;2.22;;;24.30;60.90;;;;;;5042946;28;20059;-69
2022/10/26 10:17:14;;;;;;;5.28;2.63;;;24.50;62.80;;;;;;5031357;28;20037;-71
2022/10/26 10:19:40;;;;;;;4.95;3.30;;;24.70;64.00;;;;;;5028482;28;20041;-68
2022/10/26 10:22:18;;;;;;;7.43;3.22;;;24.80;63.90;;;;;;5029434;28;20387;-70
2022/10/26 10:24:58;;;;;;;5.15;2.80;;;25.00;62.80;;;;;;5027581;28;20029;-72
2022/10/26 10:27:26;;;;;;;4.80;2.85;;;25.00;57.10;;;;;;5032157;28;20033;-70
2022/10/26 10:29:55;;;;;;;8.85;4.13;;;25.00;55.60;;;;;;5029380;28;20478;-71
2022/10/26 10:32:26;;;;;;;6.90;3.30;;;24.90;57.00;;;;;;5033604;28;20143;-70
2022/10/26 10:34:56;;;;;;;4.50;3.30;;;25.00;57.00;;;;;;5048384;28;20037;-71
2022/10/26 10:37:25;;;;;;;5.00;2.92;;;25.00;57.00;;;;;;5045944;28;20032;-68
2022/10/26 10:39:57;;;;;;;8.95;3.08;;;25.00;53.80;;;;;;5032934;28;20036;-68
2022/10/26 10:42:29;;;;;;;5.13;2.80;;;25.20;61.90;;;;;;5030512;28;20053;-69
2022/10/26 10:44:56;;;;;;;3.13;2.75;;;25.30;59.40;;;;;;5032338;28;20171;-68
2022/10/26 10:47:36;;;;;;;4.82;3.58;;;25.60;62.00;;;;;;5027765;28;20510;-68
2022/10/26 10:50:32;;;;;;;5.05;2.95;;;25.60;53.10;;;;;;5028859;28;20034;-68
2022/10/26 10:53:43;;;;;;;3.00;2.45;;;25.50;54.60;;;;;;5025671;28;20037;-69
2022/10/26 10:56:27;;;;;;;3.58;2.22;;;25.50;54.90;;;;;;4987207;28;20053;-69
2022/10/26 10:58:59;;;;;;;4.35;2.30;;;25.50;51.10;;;;;;4986981;28;20471;-68
2022/10/26 11:01:32;;;;;;;6.07;2.63;;;25.50;51.60;;;;;;4988693;28;20030;-69
2022/10/26 11:04:24;;;;;;;2.78;2.22;;;25.50;53.00;;;;;;4985018;28;20944;-70
2022/10/26 11:06:52;;;;;;;4.30;2.20;;;25.60;52.10;;;;;;4989509;28;20096;-68
2022/10/26 11:09:25;;;;;;;2.70;2.20;;;25.40;51.70;;;;;;4987470;28;20054;-70
2022/10/26 11:11:57;;;;;;;;;;;25.60;58.80;;;;;;4987018;28;20100;-70
2022/10/26 11:14:44;;;;;;;4.68;2.28;;;25.50;59.30;;;;;;4983843;28;19957;-70
2022/10/26 11:17:21;;;;;;;2.17;1.98;;;25.40;60.40;;;;;;4988399;28;20046;-69
2022/10/26 11:19:57;;;;;;;4.47;2.00;;;25.40;60.20;;;;;;4984621;28;20515;-68
2022/10/26 11:22:29;;;;;;;3.35;1.88;;;25.30;58.60;;;;;;4978677;28;20065;-69
2022/10/26 11:25:11;;;;;;;6.40;2.50;;;25.40;61.00;;;;;;4993584;28;20638;-70
2022/10/26 11:27:46;;;;;;;3.03;1.88;;;25.30;61.20;;;;;;4987055;28;20035;-69
2022/10/26 11:30:26;;;;;;;1.73;1.63;;;25.30;60.50;;;;;;5013044;28;20064;-70
2022/10/26 11:33:21;;;;;;;2.78;1.83;;;25.30;61.70;;;;;;5033106;28;20033;-68
2022/10/26 11:36:01;;;;;;;3.45;1.67;;;25.20;60.90;;;;;;5036660;28;20038;-70
2022/10/26 11:38:47;;;;;;;3.58;1.67;;;25.20;61.70;;;;;;5035830;28;20107;-69
2022/10/26 11:41:35;;;;;;;5.07;3.22;;;25.30;61.50;;;;;;5039996;28;20030;-70
2022/10/26 11:44:21;;;;;;;3.53;2.90;;;26.00;74.00;;;;;;5025196;28;20033;-68
2022/10/26 11:46:51;;;;;;;2.35;2.00;;;26.90;61.70;;;;;;5030562;28;20466;-68
2022/10/26 11:49:30;;;;;;;6.20;1.85;;;26.60;49.90;;;;;;5036890;28;20025;-68
2022/10/26 11:52:04;;;;;;;4.05;2.13;;;26.30;49.00;;;;;;5032687;28;20518;-69
2022/10/26 11:54:35;;;;;;;2.05;1.95;;;26.10;49.30;;;;;;5049457;28;20029;-70
2022/10/26 11:57:04;;;;;;;2.90;1.77;;;26.00;56.90;;;;;;5035676;28;20033;-69
2022/10/26 11:59:34;;;;;;;4.45;2.22;;;25.90;56.40;;;;;;5013178;28;20038;-68
2022/10/26 12:02:13;;;;;;;2.38;1.70;;;25.80;58.70;;;;;;5033283;28;20107;-70
2022/10/26 12:04:42;;;;;;;2.47;1.10;;;25.80;59.50;;;;;;5029808;28;20076;-69
2022/10/26 12:07:16;;;;;;;1.77;1.20;;;25.80;60.00;;;;;;5031605;28;20057;-69
2022/10/26 12:09:44;;;;;;;2.25;1.33;;;25.70;60.50;;;;;;5047230;28;20045;-69
2022/10/26 12:12:27;;;;;;;2.88;1.80;;;25.70;59.50;;;;;;5042549;28;20461;-69
2022/10/26 12:15:20;;;;;;;3.63;1.85;;;25.70;58.80;;;;;;5030411;28;20044;-69
2022/10/26 12:18:10;;;;;;;3.90;1.90;;;25.60;58.20;;;;;;5030270;28;20444;-70
2022/10/26 12:20:45;;;;;;;2.28;1.52;;;25.50;58.30;;;;;;5032019;28;20033;-70
2022/10/26 12:23:12;;;;;;;1.98;1.63;;;25.50;60.40;;;;;;5038601;28;20353;-69
2022/10/26 12:25:38;;;;;;;1.90;1.70;;;25.50;57.80;;;;;;5044368;28;20733;-69
2022/10/26 12:28:04;;;;;;;2.85;1.55;;;25.40;59.40;;;;;;5025610;28;20036;-69
2022/10/26 12:30:33;;;;;;;2.22;1.60;;;25.40;60.40;;;;;;5045720;28;20021;-69
2022/10/26 12:33:02;;;;;;;4.28;1.73;;;25.40;59.80;;;;;;5040681;28;20037;-69
2022/10/26 12:35:37;;;;;;;1.50;1.40;;;25.30;59.90;;;;;;5032863;28;20034;-69
2022/10/26 12:38:27;;;;;;;3.13;1.42;;;25.30;59.40;;;;;;5039031;28;20386;-69
2022/10/26 12:41:05;;;;;;;1.50;1.13;;;25.30;60.00;;;;;;5031054;28;22056;-69
2022/10/26 12:43:39;;;;;;;1.30;1.20;;;25.20;59.40;;;;;;5031131;28;20111;-69
2022/10/26 12:46:11;;;;;;;1.52;1.30;;;25.30;59.40;;;;;;5031283;28;20120;-69
2022/10/26 12:48:45;;;;;;;2.55;1.40;;;25.20;59.80;;;;;;5046854;28;20040;-69
2022/10/26 12:51:20;;;;;;;2.42;1.83;;;25.10;59.20;;;;;;5033080;28;20200;-69
2022/10/26 12:54:15;;;;;;;2.10;1.52;;;25.00;59.50;;;;;;5036680;28;20033;-69
2022/10/26 12:56:52;;;;;;;1.25;1.10;;;25.10;60.40;;;;;;5007126;28;20514;-69
2022/10/26 12:59:26;;;;;;;1.67;1.33;;;25.00;59.90;;;;;;4995539;28;20042;-69
2022/10/26 13:02:33;;;;;;;1.92;1.40;;;25.10;59.90;;;;;;4989999;28;20560;-69
2022/10/26 13:05:36;;;;;;;4.63;1.20;;;25.00;58.10;;;;;;5004759;28;20058;-69
2022/10/26 13:08:05;;;;;;;;;;;25.00;60.00;;;;;;5007447;28;20090;-69
2022/10/26 13:10:31;;;;;;;1.80;1.58;;;24.90;58.60;;;;;;4988399;28;19920;-70